Time;durP1;ratioP1;P1;durP2;ratioP2;P2;SDS_P1;SDS_P2;PMS_P1;PMS_P2;Temp;Humidity;BMP_temperature;BMP_pressure;BME280_temperature;BME280_humidity;BME280_pressure;Samples;Min_cycle;Max_cycle;Signal;HPM_P1;HPM_P2
2021/12/16 00:03:17;;;;;;;;;202.33;199.00;;;;;;;;5029081;27;8818;-78
2021/12/16 00:08:35;;;;;;;;;166.20;164.60;;;;;;;;5040946;27;8792;-78
2021/12/16 00:34:48;;;;;;;;;171.67;167.50;;;;;;;;5051186;28;8741;-77
2021/12/16 00:37:13;;;;;;;;;201.75;194.25;;;;;;;;5051185;28;9684;-78
2021/12/16 00:39:39;;;;;;;;;207.20;204.80;;;;;;;;5051464;27;8828;-78
2021/12/16 00:42:11;;;;;;;;;191.00;188.40;;;;;;;;5050211;28;8838;-78
2021/12/16 00:49:46;;;;;;;;;215.00;210.00;;;;;;;;5046099;28;8957;-78
2021/12/16 00:55:26;;;;;;;;;206.40;200.00;;;;;;;;5051234;28;8769;-77
2021/12/16 00:57:49;;;;;;;;;193.20;187.00;;;;;;;;5050011;27;8806;-78
2021/12/16 01:00:16;;;;;;;;;212.75;208.25;;;;;;;;5051618;28;8804;-77
2021/12/16 01:02:55;;;;;;;;;196.83;195.17;;;;;;;;5051524;28;8839;-77
2021/12/16 01:08:28;;;;;;;;;205.80;205.80;;;;;;;;5043205;28;8800;-78
2021/12/16 01:35:57;;;;;;;;;191.50;190.00;;;;;;;;5050658;28;8725;-76
2021/12/16 01:54:41;;;;;;;;;184.17;183.17;;;;;;;;5051101;28;8761;-76
2021/12/16 01:57:15;;;;;;;;;174.83;172.33;;;;;;;;5050894;28;8831;-77
2021/12/16 01:59:44;;;;;;;;;238.33;236.33;;;;;;;;5045673;28;8875;-77
2021/12/16 02:02:23;;;;;;;;;238.50;232.33;;;;;;;;5050731;27;8819;-77
2021/12/16 02:05:17;;;;;;;;;202.33;201.17;;;;;;;;5050021;27;8813;-77
2021/12/16 02:08:10;;;;;;;;;193.33;186.50;;;;;;;;5046739;27;8842;-77
2021/12/16 02:10:43;;;;;;;;;224.33;222.50;;;;;;;;5050477;28;8824;-77
2021/12/16 02:32:13;;;;;;;;;176.60;173.00;;;;;;;;5049937;28;9771;-76
2021/12/16 02:35:12;;;;;;;;;268.17;265.83;;;;;;;;5050447;28;8788;-76
2021/12/16 02:37:44;;;;;;;;;205.17;199.00;;;;;;;;5050386;27;8792;-76
2021/12/16 02:40:10;;;;;;;;;213.67;212.83;;;;;;;;5050084;27;8804;-76
2021/12/16 02:42:41;;;;;;;;;216.00;215.00;;;;;;;;5050538;28;8792;-76
2021/12/16 02:50:48;;;;;;;;;155.60;153.20;;;;;;;;5036653;28;8832;-77
2021/12/16 02:53:13;;;;;;;;;189.40;187.80;;;;;;;;5050284;27;8834;-77
2021/12/16 02:55:39;;;;;;;;;220.00;216.40;;;;;;;;5050145;28;8797;-78
2021/12/16 02:58:04;;;;;;;;;225.00;221.80;;;;;;;;5049562;27;9630;-77
2021/12/16 03:00:38;;;;;;;;;221.80;218.80;;;;;;;;5050165;27;9757;-77
2021/12/16 03:03:04;;;;;;;;;226.50;224.67;;;;;;;;5049570;28;8804;-77
2021/12/16 03:05:30;;;;;;;;;179.80;176.00;;;;;;;;5048333;27;11600;-77
2021/12/16 03:07:56;;;;;;;;;258.80;254.80;;;;;;;;5044638;28;8792;-77
2021/12/16 03:18:22;;;;;;;;;267.50;265.50;;;;;;;;5049703;28;8792;-77
2021/12/16 03:20:50;;;;;;;;;199.33;197.67;;;;;;;;5047572;28;8960;-77
2021/12/16 03:33:56;;;;;;;;;252.67;249.33;;;;;;;;5049419;28;8781;-77
2021/12/16 03:38:50;;;;;;;;;121.83;119.33;;;;;;;;5050919;27;8785;-77
2021/12/16 03:41:16;;;;;;;;;301.14;298.29;;;;;;;;5052615;27;8814;-77
2021/12/16 03:43:41;;;;;;;;;287.00;284.43;;;;;;;;5076557;27;8869;-75
2021/12/16 03:48:45;;;;;;;;;228.86;226.71;;;;;;;;5052096;27;8784;-75
2021/12/16 03:51:13;;;;;;;;;216.33;214.83;;;;;;;;5051947;28;8851;-75
2021/12/16 03:53:41;;;;;;;;;273.43;270.14;;;;;;;;5051851;27;8799;-75
2021/12/16 03:56:07;;;;;;;;;247.86;244.86;;;;;;;;5052142;28;8862;-75
2021/12/16 03:58:32;;;;;;;;;311.20;309.00;;;;;;;;5050465;27;8807;-75
2021/12/16 04:00:59;;;;;;;;;257.00;251.50;;;;;;;;5047055;28;9263;-75
2021/12/16 04:03:25;;;;;;;;;258.33;255.83;;;;;;;;5051942;28;8818;-75
2021/12/16 04:05:50;;;;;;;;;287.00;285.33;;;;;;;;5055418;27;8814;-75
2021/12/16 04:08:16;;;;;;;;;249.60;246.00;;;;;;;;5052119;27;8808;-75
2021/12/16 04:10:48;;;;;;;;;301.20;297.80;;;;;;;;5051405;28;8823;-75
2021/12/16 04:13:15;;;;;;;;;275.00;272.33;;;;;;;;5052094;28;9827;-75
2021/12/16 04:15:41;;;;;;;;;322.67;319.00;;;;;;;;5051545;28;8795;-75
2021/12/16 04:18:06;;;;;;;;;300.67;297.67;;;;;;;;5051948;27;8828;-75
2021/12/16 04:20:32;;;;;;;;;332.80;326.20;;;;;;;;5051433;28;8800;-75
2021/12/16 04:22:58;;;;;;;;;334.33;328.33;;;;;;;;5051504;27;9773;-75
2021/12/16 04:25:26;;;;;;;;;323.20;316.60;;;;;;;;5051536;27;8795;-75
2021/12/16 04:27:53;;;;;;;;;349.67;346.50;;;;;;;;5047090;28;8788;-75
2021/12/16 04:30:20;;;;;;;;;331.71;326.00;;;;;;;;5038567;27;8812;-75
2021/12/16 04:32:45;;;;;;;;;343.14;337.71;;;;;;;;5049837;27;8814;-75
2021/12/16 04:35:10;;;;;;;;;312.33;306.00;;;;;;;;5051536;27;8788;-75
2021/12/16 04:37:36;;;;;;;;;325.80;318.00;;;;;;;;5051553;28;8839;-75
2021/12/16 04:40:03;;;;;;;;;344.33;340.50;;;;;;;;5051259;27;8816;-75
2021/12/16 04:42:28;;;;;;;;;289.20;285.60;;;;;;;;5051653;27;9780;-75
2021/12/16 04:44:54;;;;;;;;;284.75;283.00;;;;;;;;5097569;27;8788;-75
2021/12/16 04:47:19;;;;;;;;;305.60;302.80;;;;;;;;5050116;27;11594;-75
2021/12/16 04:49:45;;;;;;;;;311.40;303.20;;;;;;;;5050507;27;11769;-75
2021/12/16 04:52:15;;;;;;;;;357.00;352.80;;;;;;;;5051271;27;8916;-75
2021/12/16 04:54:40;;;;;;;;;348.17;344.67;;;;;;;;5051169;28;8796;-75
2021/12/16 04:57:05;;;;;;;;;322.17;316.67;;;;;;;;5049630;27;8874;-75
2021/12/16 04:59:32;;;;;;;;;308.50;302.17;;;;;;;;5046843;28;8829;-75
2021/12/16 05:02:00;;;;;;;;;403.67;397.33;;;;;;;;5050960;28;8776;-75
2021/12/16 05:04:25;;;;;;;;;383.67;376.83;;;;;;;;5049042;27;8853;-75
2021/12/16 05:06:51;;;;;;;;;357.40;352.80;;;;;;;;5063851;27;11221;-75
2021/12/16 05:09:45;;;;;;;;;316.33;311.17;;;;;;;;5051076;27;8791;-75
2021/12/16 05:12:02;;;;;;;;;344.67;341.00;;;;;;;;5050962;27;8796;-75
2021/12/16 05:14:28;;;;;;;;;374.00;365.80;;;;;;;;5051054;27;11663;-75
2021/12/16 05:16:53;;;;;;;;;318.40;313.80;;;;;;;;5050718;27;8978;-75
2021/12/16 05:19:20;;;;;;;;;374.60;367.60;;;;;;;;5051027;28;8812;-75
2021/12/16 05:21:57;;;;;;;;;383.50;376.83;;;;;;;;5050294;28;8808;-75
2021/12/16 05:24:28;;;;;;;;;347.83;338.83;;;;;;;;5038243;28;8800;-75
2021/12/16 05:27:01;;;;;;;;;344.67;336.83;;;;;;;;5050680;28;8804;-75
2021/12/16 05:29:27;;;;;;;;;297.14;294.57;;;;;;;;5051016;27;10092;-75
2021/12/16 05:31:53;;;;;;;;;327.60;323.80;;;;;;;;5050546;27;8804;-75
2021/12/16 05:34:19;;;;;;;;;345.50;339.00;;;;;;;;5051243;28;8886;-75
2021/12/16 05:36:45;;;;;;;;;368.67;366.33;;;;;;;;5050033;27;8808;-75
2021/12/16 05:39:11;;;;;;;;;321.50;315.50;;;;;;;;5051181;28;8807;-75
2021/12/16 05:41:36;;;;;;;;;346.14;344.00;;;;;;;;5050850;27;8796;-74
2021/12/16 05:44:02;;;;;;;;;337.60;334.20;;;;;;;;5097209;27;8899;-75
2021/12/16 05:46:27;;;;;;;;;379.33;368.00;;;;;;;;5071078;27;8829;-75
2021/12/16 05:48:54;;;;;;;;;322.00;319.00;;;;;;;;5050504;28;8873;-75
2021/12/16 05:51:28;;;;;;;;;297.83;295.33;;;;;;;;5048844;27;8850;-75
2021/12/16 05:53:54;;;;;;;;;374.00;367.67;;;;;;;;5050424;27;9734;-75
2021/12/16 05:56:20;;;;;;;;;401.00;397.86;;;;;;;;5044105;27;8807;-75
2021/12/16 05:58:45;;;;;;;;;398.71;388.86;;;;;;;;5043470;28;8876;-75
2021/12/16 06:01:13;;;;;;;;;363.17;356.00;;;;;;;;5037500;28;8800;-75
2021/12/16 06:03:40;;;;;;;;;369.14;362.71;;;;;;;;5049109;27;8869;-75
2021/12/16 06:06:05;;;;;;;;;365.14;361.14;;;;;;;;5074257;27;8809;-75
2021/12/16 06:08:31;;;;;;;;;365.33;361.17;;;;;;;;5082508;27;8908;-75
2021/12/16 06:13:30;;;;;;;;;402.00;396.00;;;;;;;;5050230;27;11474;-75
2021/12/16 06:29:17;;;;;;;;;321.33;315.50;;;;;;;;5050193;28;8795;-75
2021/12/16 06:31:42;;;;;;;;;302.80;297.80;;;;;;;;5050144;28;8788;-75
2021/12/16 06:34:07;;;;;;;;;328.33;326.67;;;;;;;;5050182;27;8898;-75
2021/12/16 06:36:33;;;;;;;;;312.40;306.80;;;;;;;;5049915;28;8776;-75
2021/12/16 06:38:58;;;;;;;;;295.25;292.50;;;;;;;;5049899;27;8815;-75
2021/12/16 06:41:26;;;;;;;;;275.60;274.80;;;;;;;;5050102;28;8942;-75
2021/12/16 06:43:54;;;;;;;;;308.71;304.57;;;;;;;;5090908;27;9589;-75
2021/12/16 06:46:22;;;;;;;;;352.29;346.00;;;;;;;;5070738;27;8915;-75
2021/12/16 06:48:55;;;;;;;;;380.67;377.00;;;;;;;;5049846;28;8832;-75
2021/12/16 06:51:33;;;;;;;;;364.57;362.71;;;;;;;;5049373;28;8808;-75
2021/12/16 06:54:09;;;;;;;;;300.50;294.50;;;;;;;;5049722;28;8776;-75
2021/12/16 06:57:05;;;;;;;;;293.67;287.67;;;;;;;;5038337;28;8827;-74
2021/12/16 06:59:28;;;;;;;;;349.71;343.71;;;;;;;;5037068;28;8796;-75
2021/12/16 07:04:38;;;;;;;;;367.43;364.14;;;;;;;;5048510;27;11555;-75
2021/12/16 07:07:04;;;;;;;;;299.80;295.60;;;;;;;;5094799;27;8948;-75
2021/12/16 07:09:30;;;;;;;;;311.33;307.83;;;;;;;;5049792;28;8796;-75
2021/12/16 07:11:57;;;;;;;;;356.20;352.00;;;;;;;;5050802;28;8823;-75
2021/12/16 07:14:34;;;;;;;;;377.29;370.57;;;;;;;;5056367;28;8796;-75
2021/12/16 07:17:00;;;;;;;;;295.50;289.17;;;;;;;;5055893;28;8808;-75
2021/12/16 07:19:25;;;;;;;;;315.20;312.00;;;;;;;;5056251;27;8780;-75
2021/12/16 07:21:51;;;;;;;;;341.80;338.00;;;;;;;;5055392;28;8804;-75
2021/12/16 07:24:18;;;;;;;;;355.60;350.80;;;;;;;;5056215;27;8819;-75
2021/12/16 07:26:44;;;;;;;;;307.17;302.33;;;;;;;;5055671;28;11521;-75
2021/12/16 07:29:09;;;;;;;;;290.17;285.50;;;;;;;;5054873;28;9548;-75
2021/12/16 07:31:36;;;;;;;;;305.40;302.40;;;;;;;;5055959;27;8839;-75
2021/12/16 07:34:02;;;;;;;;;403.14;393.29;;;;;;;;5055559;27;9739;-75
2021/12/16 07:36:30;;;;;;;;;270.33;267.00;;;;;;;;5055614;27;8926;-75
2021/12/16 07:38:56;;;;;;;;;352.67;342.33;;;;;;;;5055574;28;8815;-75
2021/12/16 07:41:25;;;;;;;;;270.80;266.60;;;;;;;;5056049;28;8776;-75
2021/12/16 07:44:09;;;;;;;;;289.43;286.00;;;;;;;;5090345;27;8805;-75
2021/12/16 07:46:36;;;;;;;;;322.00;316.50;;;;;;;;5055988;28;9657;-75
2021/12/16 07:49:01;;;;;;;;;361.60;356.60;;;;;;;;5053692;28;10629;-75
2021/12/16 07:51:26;;;;;;;;;327.67;322.67;;;;;;;;5049310;27;8950;-75
2021/12/16 07:53:51;;;;;;;;;268.00;266.00;;;;;;;;5053983;28;8831;-75
2021/12/16 07:56:17;;;;;;;;;326.00;313.00;;;;;;;;5054132;28;8851;-75
2021/12/16 07:58:42;;;;;;;;;287.25;279.75;;;;;;;;5053981;27;9615;-75
2021/12/16 08:01:08;;;;;;;;;317.40;311.40;;;;;;;;5062230;28;8818;-75
2021/12/16 08:03:37;;;;;;;;;353.20;346.80;;;;;;;;5055586;27;8824;-75
2021/12/16 08:06:06;;;;;;;;;308.33;305.67;;;;;;;;5065720;27;8794;-75
2021/12/16 08:08:32;;;;;;;;;279.00;270.83;;;;;;;;5056642;27;8767;-75
2021/12/16 08:10:58;;;;;;;;;257.17;253.00;;;;;;;;5055072;28;8902;-76
2021/12/16 08:13:24;;;;;;;;;322.67;318.50;;;;;;;;5053740;27;8807;-75
2021/12/16 08:15:50;;;;;;;;;317.83;315.33;;;;;;;;5054647;28;8796;-75
2021/12/16 08:18:16;;;;;;;;;296.33;290.67;;;;;;;;5054846;27;8741;-76
2021/12/16 08:20:41;;;;;;;;;300.83;291.00;;;;;;;;5054955;28;8838;-76
2021/12/16 08:23:07;;;;;;;;;312.40;310.20;;;;;;;;5052989;27;8856;-75
2021/12/16 08:25:32;;;;;;;;;337.83;324.00;;;;;;;;5051436;28;8812;-74
2021/12/16 08:27:59;;;;;;;;;332.00;327.50;;;;;;;;5064652;28;8832;-75
2021/12/16 08:30:26;;;;;;;;;273.67;270.67;;;;;;;;5051657;28;8986;-76
2021/12/16 08:32:52;;;;;;;;;274.50;267.33;;;;;;;;5049385;27;8815;-76
2021/12/16 08:35:17;;;;;;;;;242.83;239.17;;;;;;;;5051596;28;8824;-76
2021/12/16 08:37:43;;;;;;;;;374.50;370.17;;;;;;;;5049576;27;8851;-76
2021/12/16 08:40:10;;;;;;;;;393.83;391.67;;;;;;;;5051709;28;8812;-76
2021/12/16 08:42:36;;;;;;;;;356.00;352.33;;;;;;;;5051415;27;8780;-76
2021/12/16 08:45:01;;;;;;;;;330.25;322.50;;;;;;;;5078890;27;8835;-76
2021/12/16 08:47:26;;;;;;;;;318.00;310.33;;;;;;;;5051601;27;9621;-76
2021/12/16 08:49:52;;;;;;;;;277.40;273.40;;;;;;;;5049329;28;8915;-76
2021/12/16 08:52:20;;;;;;;;;320.25;316.75;;;;;;;;5051468;28;10428;-76
2021/12/16 08:54:46;;;;;;;;;341.50;337.17;;;;;;;;5051106;28;9634;-76
2021/12/16 08:57:12;;;;;;;;;299.83;293.50;;;;;;;;5037977;27;8791;-75
2021/12/16 08:59:38;;;;;;;;;261.60;258.80;;;;;;;;5051708;28;8816;-75
2021/12/16 09:02:04;;;;;;;;;267.83;261.33;;;;;;;;5051110;27;8780;-76
2021/12/16 09:04:30;;;;;;;;;330.60;328.00;;;;;;;;5050396;27;8866;-76
2021/12/16 09:06:57;;;;;;;;;264.20;259.80;;;;;;;;5109117;27;8859;-75
2021/12/16 09:09:23;;;;;;;;;254.40;252.80;;;;;;;;5051590;28;8769;-74
2021/12/16 09:12:06;;;;;;;;;238.60;234.60;;;;;;;;5050835;27;8847;-75
2021/12/16 09:14:31;;;;;;;;;263.50;260.50;;;;;;;;5050764;28;8796;-74
2021/12/16 09:16:57;;;;;;;;;297.00;293.80;;;;;;;;5052684;28;8800;-74
2021/12/16 09:19:22;;;;;;;;;309.80;303.80;;;;;;;;5050846;27;8839;-75
2021/12/16 09:21:48;;;;;;;;;266.33;257.00;;;;;;;;5051460;27;8808;-74
2021/12/16 09:24:14;;;;;;;;;273.33;270.67;;;;;;;;5054466;27;11623;-75
2021/12/16 09:26:44;;;;;;;;;235.25;234.25;;;;;;;;5050809;27;8795;-75
2021/12/16 09:29:09;;;;;;;;;212.83;211.50;;;;;;;;5046583;28;8799;-75
2021/12/16 09:31:35;;;;;;;;;214.20;210.40;;;;;;;;5049181;27;8835;-75
2021/12/16 09:34:05;;;;;;;;;212.00;207.20;;;;;;;;5050318;28;9564;-75
2021/12/16 09:36:31;;;;;;;;;201.67;192.67;;;;;;;;5048748;28;8880;-75
2021/12/16 09:38:57;;;;;;;;;224.50;220.17;;;;;;;;5050617;27;8780;-74
2021/12/16 09:41:22;;;;;;;;;239.50;230.50;;;;;;;;5051082;28;8823;-75
2021/12/16 09:43:50;;;;;;;;;220.50;218.75;;;;;;;;5087309;27;8805;-75
2021/12/16 09:46:18;;;;;;;;;211.50;209.17;;;;;;;;5054501;27;8788;-75
2021/12/16 09:48:44;;;;;;;;;227.50;222.50;;;;;;;;5049288;28;8808;-75
2021/12/16 09:51:13;;;;;;;;;221.00;219.17;;;;;;;;5044771;27;8895;-75
2021/12/16 09:53:39;;;;;;;;;186.20;182.40;;;;;;;;5044779;27;8856;-74
2021/12/16 09:56:17;;;;;;;;;193.83;189.00;;;;;;;;5048295;27;8952;-74
2021/12/16 09:58:44;;;;;;;;;194.17;190.67;;;;;;;;5047718;27;8796;-75
2021/12/16 10:01:11;;;;;;;;;206.60;204.00;;;;;;;;5047800;28;12086;-75
2021/12/16 10:03:40;;;;;;;;;217.80;214.80;;;;;;;;5050924;27;8802;-74
2021/12/16 10:06:05;;;;;;;;;191.67;184.67;;;;;;;;5073369;27;8821;-74
2021/12/16 10:08:31;;;;;;;;;194.40;193.00;;;;;;;;5071451;27;8820;-75
2021/12/16 10:10:58;;;;;;;;;203.00;199.40;;;;;;;;5055682;27;10493;-74
2021/12/16 10:13:35;;;;;;;;;208.75;205.25;;;;;;;;5050821;27;8752;-75
2021/12/16 10:18:29;;;;;;;;;211.20;206.20;;;;;;;;5050816;28;8956;-75
2021/12/16 10:20:56;;;;;;;;;219.80;216.20;;;;;;;;5050843;27;8935;-74
2021/12/16 10:23:21;;;;;;;;;163.25;157.75;;;;;;;;5051348;27;8776;-74
2021/12/16 10:25:49;;;;;;;;;168.60;165.80;;;;;;;;5050400;27;8812;-74
2021/12/16 10:28:17;;;;;;;;;177.50;175.67;;;;;;;;5051795;27;8832;-74
2021/12/16 10:30:42;;;;;;;;;174.33;171.00;;;;;;;;5059987;28;8797;-74
2021/12/16 10:33:20;;;;;;;;;170.33;168.33;;;;;;;;5051377;27;8776;-74
2021/12/16 10:35:47;;;;;;;;;222.83;219.83;;;;;;;;5050142;28;8782;-74
2021/12/16 10:38:13;;;;;;;;;164.40;157.80;;;;;;;;5050576;27;8810;-75
2021/12/16 10:40:47;;;;;;;;;153.40;150.60;;;;;;;;5050935;28;8762;-75
2021/12/16 10:43:24;;;;;;;;;175.20;170.60;;;;;;;;5058302;27;8784;-74
2021/12/16 10:45:52;;;;;;;;;164.50;155.83;;;;;;;;5050011;27;8813;-75
2021/12/16 10:48:35;;;;;;;;;152.40;145.80;;;;;;;;5051463;27;8884;-74
2021/12/16 10:51:19;;;;;;;;;156.17;152.67;;;;;;;;5043118;28;8860;-75
2021/12/16 10:53:50;;;;;;;;;157.40;153.00;;;;;;;;5050334;28;8833;-75
2021/12/16 10:56:17;;;;;;;;;182.20;177.40;;;;;;;;5051359;27;8804;-74
2021/12/16 10:58:54;;;;;;;;;164.00;159.33;;;;;;;;5048509;28;8874;-74
2021/12/16 11:01:34;;;;;;;;;156.67;154.50;;;;;;;;5050150;28;8822;-74
2021/12/16 11:04:00;;;;;;;;;164.17;154.83;;;;;;;;5050829;27;8808;-74
2021/12/16 11:06:37;;;;;;;;;147.40;143.20;;;;;;;;5068808;27;8979;-74
2021/12/16 11:09:26;;;;;;;;;148.67;143.33;;;;;;;;5048481;28;8838;-74
2021/12/16 11:12:09;;;;;;;;;141.80;133.20;;;;;;;;5039193;28;11512;-74
2021/12/16 11:14:36;;;;;;;;;146.33;143.17;;;;;;;;5050282;28;8796;-74
2021/12/16 11:17:03;;;;;;;;;153.75;150.50;;;;;;;;5050121;28;8815;-74
2021/12/16 11:19:46;;;;;;;;;143.00;138.60;;;;;;;;5048762;27;8823;-74
2021/12/16 11:22:14;;;;;;;;;152.80;151.00;;;;;;;;5037553;28;8804;-74
2021/12/16 11:24:39;;;;;;;;;153.80;150.40;;;;;;;;5084191;27;8782;-74
2021/12/16 11:27:23;;;;;;;;;151.00;144.00;;;;;;;;5047223;28;8889;-74
2021/12/16 11:29:48;;;;;;;;;144.40;137.80;;;;;;;;5049815;27;8922;-75
2021/12/16 11:32:32;;;;;;;;;145.60;137.00;;;;;;;;5050842;27;8794;-74
2021/12/16 11:34:57;;;;;;;;;153.20;149.80;;;;;;;;5075704;27;8826;-74
2021/12/16 11:37:23;;;;;;;;;165.50;163.75;;;;;;;;5049905;28;8888;-74
2021/12/16 11:39:48;;;;;;;;;143.75;141.00;;;;;;;;5050100;27;8868;-74
2021/12/16 11:42:14;;;;;;;;;143.60;141.60;;;;;;;;5055195;28;8800;-74
2021/12/16 11:44:42;;;;;;;;;149.40;149.00;;;;;;;;5057126;27;8872;-74
2021/12/16 11:47:07;;;;;;;;;148.17;145.33;;;;;;;;5048383;28;8830;-74
2021/12/16 11:49:41;;;;;;;;;138.80;134.20;;;;;;;;5048875;27;8820;-74
2021/12/16 11:52:09;;;;;;;;;144.80;140.60;;;;;;;;5048245;28;9180;-74
2021/12/16 11:54:36;;;;;;;;;140.25;137.00;;;;;;;;5050187;27;9786;-73
2021/12/16 11:57:28;;;;;;;;;156.00;154.00;;;;;;;;5061981;27;8927;-74
2021/12/16 11:59:56;;;;;;;;;145.00;143.17;;;;;;;;5072973;27;8768;-74
2021/12/16 12:02:24;;;;;;;;;140.40;134.00;;;;;;;;5052902;27;8765;-74
2021/12/16 12:04:50;;;;;;;;;144.20;139.60;;;;;;;;5049473;27;11396;-74
2021/12/16 12:07:18;;;;;;;;;147.60;146.40;;;;;;;;5060242;27;8938;-75
2021/12/16 12:09:46;;;;;;;;;147.00;144.00;;;;;;;;5053914;27;9722;-75
2021/12/16 12:12:12;;;;;;;;;143.20;139.40;;;;;;;;5103063;27;8804;-75
2021/12/16 12:14:39;;;;;;;;;138.00;135.00;;;;;;;;5052151;27;9714;-73
2021/12/16 12:17:06;;;;;;;;;146.25;145.50;;;;;;;;5052316;28;8760;-77
2021/12/16 12:19:31;;;;;;;;;137.00;134.00;;;;;;;;5053465;27;9479;-74
2021/12/16 12:22:00;;;;;;;;;143.50;142.75;;;;;;;;5051933;27;8824;-74
2021/12/16 12:24:37;;;;;;;;;147.60;146.60;;;;;;;;5052862;28;8877;-74
2021/12/16 12:27:13;;;;;;;;;149.80;149.00;;;;;;;;5040185;28;11022;-74
2021/12/16 12:29:43;;;;;;;;;144.33;139.33;;;;;;;;5052052;28;8882;-74
2021/12/16 12:32:18;;;;;;;;;136.25;132.75;;;;;;;;5052683;27;8788;-74
2021/12/16 12:34:47;;;;;;;;;131.75;127.00;;;;;;;;5051595;27;8895;-74
2021/12/16 12:37:13;;;;;;;;;136.00;132.60;;;;;;;;5052564;27;8724;-74
2021/12/16 12:39:42;;;;;;;;;143.40;143.00;;;;;;;;5051695;28;8838;-74
2021/12/16 12:42:09;;;;;;;;;144.80;144.80;;;;;;;;5052443;27;9238;-74
2021/12/16 12:44:34;;;;;;;;;152.40;152.40;;;;;;;;5066532;27;8856;-74
2021/12/16 12:47:00;;;;;;;;;157.00;157.00;;;;;;;;5052023;27;8832;-74
2021/12/16 12:49:29;;;;;;;;;142.25;142.25;;;;;;;;5052984;27;8812;-74
2021/12/16 12:52:02;;;;;;;;;144.60;142.20;;;;;;;;5051238;27;8877;-74
2021/12/16 12:54:30;;;;;;;;;149.60;148.80;;;;;;;;5048534;27;8998;-75
2021/12/16 12:56:57;;;;;;;;;142.67;141.50;;;;;;;;5041780;28;8772;-75
2021/12/16 12:59:32;;;;;;;;;138.80;137.80;;;;;;;;5050656;27;8845;-75
2021/12/16 13:01:57;;;;;;;;;144.67;143.83;;;;;;;;5051811;28;8804;-75
2021/12/16 13:04:23;;;;;;;;;128.80;124.60;;;;;;;;5050859;27;8849;-74
2021/12/16 13:06:50;;;;;;;;;141.25;140.50;;;;;;;;5065300;27;8820;-75
2021/12/16 13:09:36;;;;;;;;;141.40;140.60;;;;;;;;5051410;27;9667;-75
2021/12/16 13:12:05;;;;;;;;;130.80;127.60;;;;;;;;5051503;27;11790;-75
2021/12/16 13:14:43;;;;;;;;;139.60;134.60;;;;;;;;5051684;28;8755;-75
2021/12/16 13:26:02;;;;;;;;;141.40;138.20;;;;;;;;5080211;27;8788;-76
2021/12/16 13:28:39;;;;;;;;;138.20;133.80;;;;;;;;5046476;27;8889;-77
2021/12/16 13:31:22;;;;;;;;;130.00;126.60;;;;;;;;5051357;28;8808;-77
2021/12/16 13:33:52;;;;;;;;;130.40;126.60;;;;;;;;5049605;28;8823;-76
2021/12/16 13:36:28;;;;;;;;;135.67;133.17;;;;;;;;5051245;27;8760;-76
2021/12/16 13:38:53;;;;;;;;;143.83;140.83;;;;;;;;5051361;27;8792;-76
2021/12/16 13:41:24;;;;;;;;;138.00;134.00;;;;;;;;5063547;28;8833;-76
2021/12/16 13:44:03;;;;;;;;;137.50;133.83;;;;;;;;5090291;27;8773;-76
2021/12/16 13:46:39;;;;;;;;;130.25;130.00;;;;;;;;5059633;27;8849;-76
2021/12/16 14:03:45;;;;;;;;;128.60;126.20;;;;;;;;5051345;28;8765;-75
2021/12/16 14:06:54;;;;;;;;;131.00;129.40;;;;;;;;5066044;27;8806;-75
2021/12/16 14:09:16;;;;;;;;;135.83;134.33;;;;;;;;5053591;27;8873;-75
2021/12/16 14:14:42;;;;;;;;;142.33;141.17;;;;;;;;5051078;27;8796;-75
2021/12/16 14:42:06;;;;;;;;;129.60;127.20;;;;;;;;5054211;28;8800;-75
2021/12/16 14:47:56;;;;;;;;;125.00;121.00;;;;;;;;5049910;28;8811;-74
2021/12/16 14:49:57;;;;;;;;;128.50;122.25;;;;;;;;5057626;27;8842;-75
2021/12/16 14:52:25;;;;;;;;;112.75;110.75;;;;;;;;5047078;27;9631;-76
2021/12/16 14:54:54;;;;;;;;;91.00;85.60;;;;;;;;5050253;28;11602;-75
2021/12/16 14:57:24;;;;;;;;;88.50;85.25;;;;;;;;5084001;27;8840;-75
2021/12/16 14:59:51;;;;;;;;;84.60;74.00;;;;;;;;5049710;28;8792;-76
2021/12/16 15:02:17;;;;;;;;;86.60;78.20;;;;;;;;5049881;27;8828;-75
2021/12/16 15:04:42;;;;;;;;;83.60;71.60;;;;;;;;5048527;27;9718;-75
2021/12/16 15:07:11;;;;;;;;;100.50;96.00;;;;;;;;5117367;27;8818;-75
2021/12/16 15:09:39;;;;;;;;;83.00;70.00;;;;;;;;5053983;27;8804;-75
2021/12/16 15:15:08;;;;;;;;;89.00;81.00;;;;;;;;5050094;27;8795;-75
2021/12/16 15:44:53;;;;;;;;;139.20;132.80;;;;;;;;5075113;27;8801;-76
2021/12/16 15:47:19;;;;;;;;;137.80;135.80;;;;;;;;5052539;28;8839;-75
2021/12/16 15:49:44;;;;;;;;;134.20;132.60;;;;;;;;5053157;27;8872;-75
2021/12/16 15:52:10;;;;;;;;;152.50;151.75;;;;;;;;5052450;28;8843;-75
2021/12/16 15:54:37;;;;;;;;;145.20;142.80;;;;;;;;5052202;28;8804;-75
2021/12/16 15:57:03;;;;;;;;;135.20;131.20;;;;;;;;5051923;27;9622;-76
2021/12/16 15:59:29;;;;;;;;;135.80;131.20;;;;;;;;5051986;27;9670;-75
2021/12/16 16:01:55;;;;;;;;;125.50;121.25;;;;;;;;5051060;27;8829;-75
2021/12/16 16:04:22;;;;;;;;;144.40;141.80;;;;;;;;5051356;27;8955;-75
2021/12/16 16:06:49;;;;;;;;;134.80;134.20;;;;;;;;5061945;27;8796;-76
2021/12/16 16:09:15;;;;;;;;;123.80;122.00;;;;;;;;5047158;27;8835;-76
2021/12/16 16:11:50;;;;;;;;;136.00;132.60;;;;;;;;5052016;28;11538;-76
2021/12/16 16:14:16;;;;;;;;;104.20;100.80;;;;;;;;5052484;27;8792;-76
2021/12/16 16:16:48;;;;;;;;;107.50;105.00;;;;;;;;5052302;28;8906;-76
2021/12/16 16:19:19;;;;;;;;;145.60;143.60;;;;;;;;5052157;28;8850;-76
2021/12/16 16:21:47;;;;;;;;;93.60;89.80;;;;;;;;5051889;27;8799;-76
2021/12/16 16:24:18;;;;;;;;;90.20;82.00;;;;;;;;5052400;28;8772;-76
2021/12/16 16:26:44;;;;;;;;;90.00;84.00;;;;;;;;5051878;27;8829;-76
2021/12/16 16:29:12;;;;;;;;;72.75;58.50;;;;;;;;5052691;28;9555;-76
2021/12/16 16:31:38;;;;;;;;;89.00;81.60;;;;;;;;5051894;27;8932;-76
2021/12/16 16:34:11;;;;;;;;;101.00;98.00;;;;;;;;5050907;28;8748;-76
2021/12/16 16:36:44;;;;;;;;;109.60;103.20;;;;;;;;5052089;27;8872;-76
2021/12/16 16:39:11;;;;;;;;;108.80;101.40;;;;;;;;5052488;28;8753;-76
2021/12/16 16:41:42;;;;;;;;;85.80;78.40;;;;;;;;5052126;27;8773;-76
2021/12/16 16:44:12;;;;;;;;;99.40;98.40;;;;;;;;5104741;27;8793;-76
2021/12/16 16:46:43;;;;;;;;;103.80;99.80;;;;;;;;5061930;27;8792;-76
2021/12/16 16:49:10;;;;;;;;;86.75;74.75;;;;;;;;5052172;28;8919;-76
2021/12/16 16:51:41;;;;;;;;;96.25;93.00;;;;;;;;5051817;27;8800;-76
2021/12/16 16:54:19;;;;;;;;;90.80;85.00;;;;;;;;5052295;28;8772;-76
2021/12/16 16:57:03;;;;;;;;;91.60;86.80;;;;;;;;5032929;27;8879;-75
2021/12/16 16:59:48;;;;;;;;;86.20;75.40;;;;;;;;5051118;27;8820;-75
2021/12/16 17:02:14;;;;;;;;;85.80;75.40;;;;;;;;5050852;28;8979;-75
2021/12/16 17:04:39;;;;;;;;;81.33;66.00;;;;;;;;5050439;27;8816;-76
2021/12/16 17:07:04;;;;;;;;;92.75;88.50;;;;;;;;5109530;27;8826;-75
2021/12/16 17:09:31;;;;;;;;;90.00;84.50;;;;;;;;5050776;27;8942;-76
2021/12/16 17:11:57;;;;;;;;;83.20;73.00;;;;;;;;5051556;28;9116;-76
2021/12/16 17:14:33;;;;;;;;;90.50;87.25;;;;;;;;5051932;27;8978;-76
2021/12/16 17:19:46;;;;;;;;;92.20;87.60;;;;;;;;5050224;28;8895;-75
2021/12/16 17:22:19;;;;;;;;;75.75;60.50;;;;;;;;5050304;27;8804;-76
2021/12/16 17:24:46;;;;;;;;;87.00;77.20;;;;;;;;5050038;28;8791;-76
2021/12/16 17:27:12;;;;;;;;;89.40;84.40;;;;;;;;5051866;27;8845;-76
2021/12/16 17:29:40;;;;;;;;;87.00;75.75;;;;;;;;5052412;27;9805;-77
2021/12/16 17:32:10;;;;;;;;;79.00;63.60;;;;;;;;5049392;28;8744;-76
2021/12/16 17:34:40;;;;;;;;;98.00;93.60;;;;;;;;5054785;27;8788;-76
2021/12/16 17:37:17;;;;;;;;;93.20;88.00;;;;;;;;5051981;27;8899;-76
2021/12/16 17:39:43;;;;;;;;;89.20;83.00;;;;;;;;5051130;28;8768;-76
2021/12/16 17:42:11;;;;;;;;;94.40;89.40;;;;;;;;5054603;27;8796;-76
2021/12/16 17:44:37;;;;;;;;;85.00;74.60;;;;;;;;5092443;27;8788;-76
2021/12/16 17:47:08;;;;;;;;;82.17;67.67;;;;;;;;5051173;27;8778;-76
2021/12/16 17:49:33;;;;;;;;;128.60;124.80;;;;;;;;5038512;28;9784;-76
2021/12/16 17:52:00;;;;;;;;;121.50;119.75;;;;;;;;5050556;27;8831;-76
2021/12/16 17:54:26;;;;;;;;;96.20;91.40;;;;;;;;5049764;27;8948;-76
2021/12/16 17:56:53;;;;;;;;;106.75;105.25;;;;;;;;5049233;28;8830;-76
2021/12/16 17:59:19;;;;;;;;;99.40;95.00;;;;;;;;5052052;27;8781;-76
2021/12/16 18:01:46;;;;;;;;;97.25;90.25;;;;;;;;5050139;28;9567;-76
2021/12/16 18:04:19;;;;;;;;;97.00;92.80;;;;;;;;5048878;27;8792;-76
2021/12/16 18:06:50;;;;;;;;;106.50;104.75;;;;;;;;5053848;27;8860;-76
2021/12/16 18:09:21;;;;;;;;;145.40;144.00;;;;;;;;5050238;27;8796;-76
2021/12/16 18:11:49;;;;;;;;;135.80;133.20;;;;;;;;5045535;28;8824;-77
2021/12/16 18:14:17;;;;;;;;;128.17;123.00;;;;;;;;5043274;28;8873;-76